Terminal Aerodrome Forecast
Issued by NWS

Home | Current Version | Previous Version | Text Only | Print | Product List | Glossary On
Versions: 1 2 3 4 5 6 7 8 9 10 11 12 13 14 15 16 17 18 19 20 21 22
000
FTUS42 TJSJ 191120
TAFJSJ
TAF
TJSJ 191120Z 1912/2012 07020G25KT P6SM VCSH SCT020 BKN040
     FM192300 09010G16KT P6SM VCSH SCT030 BKN080
     FM200600 09005KT P6SM OVC250=

USA.gov is the U.S. government's official web portal to all federal, state and local government web resources and services.